Time;durP1;ratioP1;P1;durP2;ratioP2;P2;SDS_P1;SDS_P2;PMS_P1;PMS_P2;Temp;Humidity;BMP_temperature;BMP_pressure;BME280_temperature;BME280_humidity;BME280_pressure;Samples;Min_cycle;Max_cycle;Signal;HPM_P1;HPM_P2
2023/03/31 00:01:35;;;;;;;20.90;4.07;;;10.70;99.90;;;;;;4999323;28;20045;-85
2023/03/31 00:04:03;;;;;;;17.95;3.65;;;10.70;99.90;;;;;;5015578;28;20092;-84
2023/03/31 00:06:36;;;;;;;20.98;4.22;;;10.80;99.90;;;;;;4997147;28;20050;-84
2023/03/31 00:09:04;;;;;;;22.13;4.45;;;10.80;99.90;;;;;;4999811;28;20516;-82
2023/03/31 00:11:30;;;;;;;19.90;4.03;;;10.80;99.90;;;;;;4998822;28;20049;-85
2023/03/31 00:13:56;;;;;;;20.45;4.15;;;10.80;99.90;;;;;;5015618;28;20107;-84
2023/03/31 00:16:21;;;;;;;20.98;3.92;;;10.80;99.90;;;;;;5015631;28;20058;-84
2023/03/31 00:18:49;;;;;;;16.92;3.63;;;10.80;99.90;;;;;;5000611;28;20073;-84
2023/03/31 00:21:24;;;;;;;18.00;3.92;;;10.80;99.90;;;;;;4992168;28;20519;-85
2023/03/31 00:23:52;;;;;;;19.13;4.00;;;10.80;99.90;;;;;;4992743;28;20058;-85
2023/03/31 00:26:18;;;;;;;16.85;3.72;;;10.80;99.90;;;;;;5015959;28;20052;-84
2023/03/31 00:28:44;;;;;;;19.02;3.72;;;10.70;99.90;;;;;;5014772;28;20125;-84
2023/03/31 00:31:12;;;;;;;18.75;3.85;;;10.70;99.90;;;;;;5015239;28;20441;-85
2023/03/31 00:33:38;;;;;;;19.45;3.97;;;10.60;99.90;;;;;;4967269;28;20042;-84
2023/03/31 00:36:04;;;;;;;21.75;4.22;;;10.50;99.90;;;;;;5014966;28;20061;-85
2023/03/31 00:38:31;;;;;;;22.85;4.30;;;10.40;99.90;;;;;;5013832;28;20085;-84
2023/03/31 00:40:59;;;;;;;17.65;4.03;;;10.40;99.90;;;;;;5014387;28;20056;-85
2023/03/31 00:43:35;;;;;;;20.42;4.13;;;10.30;99.90;;;;;;5014392;28;20497;-84
2023/03/31 00:46:16;;;;;;;19.83;3.80;;;10.20;99.90;;;;;;5014780;28;20093;-85
2023/03/31 00:48:56;;;;;;;22.23;4.03;;;10.10;99.90;;;;;;5014039;28;20064;-85
2023/03/31 00:51:25;;;;;;;20.05;3.90;;;10.10;99.90;;;;;;5001674;28;20096;-84
2023/03/31 00:54:04;;;;;;;21.73;4.20;;;9.90;99.90;;;;;;5014117;28;20058;-85
2023/03/31 00:56:43;;;;;;;21.17;4.10;;;9.90;99.90;;;;;;5014401;28;20054;-86
2023/03/31 00:59:11;;;;;;;19.60;3.95;;;9.80;99.90;;;;;;5014724;28;20049;-86
2023/03/31 01:01:41;;;;;;;21.30;4.22;;;9.70;99.90;;;;;;5014389;28;20050;-85
2023/03/31 01:04:08;;;;;;;22.90;4.30;;;9.60;99.90;;;;;;5014233;28;20058;-85
2023/03/31 01:06:41;;;;;;;22.27;4.43;;;9.60;99.90;;;;;;4984344;28;20077;-85
2023/03/31 01:09:07;;;;;;;18.20;3.60;;;9.50;99.90;;;;;;5013883;28;20054;-85
2023/03/31 01:11:34;;;;;;;21.08;4.00;;;9.50;99.90;;;;;;5014143;28;20091;-85
2023/03/31 01:14:02;;;;;;;21.92;3.72;;;9.50;99.90;;;;;;5013978;28;20046;-84
2023/03/31 01:16:27;;;;;;;17.48;3.80;;;9.50;99.90;;;;;;4997882;28;20128;-86
2023/03/31 01:18:56;;;;;;;22.52;4.10;;;9.40;99.90;;;;;;5014172;28;20200;-85
2023/03/31 01:21:44;;;;;;;18.83;3.97;;;9.40;99.90;;;;;;5014193;28;20046;-85
2023/03/31 01:24:37;;;;;;;18.42;4.20;;;9.50;99.90;;;;;;5010934;28;20050;-85
2023/03/31 01:27:27;;;;;;;16.77;4.18;;;9.40;99.90;;;;;;4990574;28;20094;-85
2023/03/31 01:30:35;;;;;;;19.70;4.50;;;9.40;99.90;;;;;;5030952;28;20045;-85
2023/03/31 01:33:21;;;;;;;19.00;4.70;;;9.40;99.90;;;;;;4941666;28;20050;-84
2023/03/31 01:35:47;;;;;;;16.60;5.55;;;9.40;99.90;;;;;;5005470;28;20059;-85
2023/03/31 01:38:12;;;;;;;17.15;5.50;;;9.50;99.90;;;;;;5006925;28;20042;-84
2023/03/31 01:41:03;;;;;;;18.58;5.80;;;9.50;99.90;;;;;;4990878;28;20448;-85
2023/03/31 01:43:42;;;;;;;17.83;5.47;;;9.60;99.90;;;;;;5000436;28;20499;-85
2023/03/31 01:46:33;;;;;;;18.27;5.93;;;9.60;99.90;;;;;;4997852;28;20054;-85
2023/03/31 01:49:08;;;;;;;20.10;5.88;;;9.60;99.90;;;;;;4996719;28;20441;-84
2023/03/31 01:51:59;;;;;;;19.77;5.65;;;9.60;99.90;;;;;;5008992;28;20280;-85
2023/03/31 01:54:45;;;;;;;20.87;5.60;;;9.60;99.90;;;;;;5013048;28;20112;-84
2023/03/31 01:57:17;;;;;;;19.67;6.05;;;9.70;99.90;;;;;;5008619;28;20081;-85
2023/03/31 01:59:57;;;;;;;20.52;5.75;;;9.70;99.90;;;;;;4997232;28;20552;-85
2023/03/31 02:02:29;;;;;;;21.25;5.80;;;9.60;99.90;;;;;;5013046;28;20396;-84
2023/03/31 02:04:58;;;;;;;;;;;9.70;99.90;;;;;;5013625;28;20054;-85
2023/03/31 02:07:38;;;;;;;19.17;5.80;;;9.70;99.90;;;;;;5013257;28;19922;-85
2023/03/31 02:10:07;;;;;;;20.95;5.55;;;9.60;99.90;;;;;;4996722;28;20052;-85
2023/03/31 02:12:34;;;;;;;17.15;5.47;;;9.60;99.90;;;;;;5012786;28;20041;-85
2023/03/31 02:15:04;;;;;;;17.45;5.53;;;9.60;99.90;;;;;;5013709;28;20096;-84
2023/03/31 02:17:31;;;;;;;18.27;5.35;;;9.60;99.90;;;;;;5010030;28;20050;-85
2023/03/31 02:20:04;;;;;;;16.15;5.55;;;9.50;99.90;;;;;;4990161;28;20089;-85
2023/03/31 02:22:35;;;;;;;15.82;5.32;;;9.50;99.90;;;;;;5005077;28;20046;-86
2023/03/31 02:25:02;;;;;;;12.88;4.40;;;9.50;99.90;;;;;;5012933;28;20448;-86
2023/03/31 02:27:32;;;;;;;17.15;5.22;;;9.50;99.90;;;;;;5014004;28;20125;-84
2023/03/31 02:29:58;;;;;;;18.13;5.30;;;9.60;99.90;;;;;;5013455;28;20500;-85
2023/03/31 02:32:35;;;;;;;17.10;5.20;;;9.60;99.90;;;;;;5012796;28;20473;-85
2023/03/31 02:35:02;;;;;;;15.50;4.53;;;9.60;99.90;;;;;;4996234;28;20061;-85
2023/03/31 02:37:29;;;;;;;15.95;5.05;;;9.60;99.90;;;;;;5012435;28;20096;-85
2023/03/31 02:39:59;;;;;;;15.52;4.50;;;9.60;99.90;;;;;;4995764;28;20057;-84
2023/03/31 02:42:25;;;;;;;15.82;4.90;;;9.60;99.90;;;;;;5012711;28;20054;-85
2023/03/31 02:44:51;;;;;;;15.32;4.70;;;9.60;99.90;;;;;;5013190;28;20053;-84
2023/03/31 02:47:19;;;;;;;19.70;5.13;;;9.60;99.90;;;;;;5018660;28;20060;-85
2023/03/31 02:49:52;;;;;;;13.98;4.43;;;9.60;99.90;;;;;;5012211;28;20046;-85
2023/03/31 02:52:52;;;;;;;15.93;4.38;;;9.60;99.90;;;;;;5010553;28;20053;-84
2023/03/31 02:55:18;;;;;;;16.40;4.60;;;9.60;99.90;;;;;;4995660;28;20034;-85
2023/03/31 02:57:48;;;;;;;16.08;4.43;;;9.60;99.90;;;;;;4995509;28;20370;-85
2023/03/31 03:00:33;;;;;;;15.80;4.40;;;9.60;99.90;;;;;;5012886;28;20049;-82
2023/03/31 03:03:02;;;;;;;16.75;5.03;;;9.70;99.90;;;;;;5012737;28;20050;-85
2023/03/31 03:05:44;;;;;;;13.55;4.00;;;9.70;99.90;;;;;;5013937;28;20045;-84
2023/03/31 03:08:16;;;;;;;15.07;4.30;;;9.70;99.90;;;;;;5012292;28;20053;-84
2023/03/31 03:10:48;;;;;;;;;;;9.70;99.90;;;;;;5013922;28;20493;-83
2023/03/31 03:13:19;;;;;;;12.87;4.00;;;9.80;99.90;;;;;;5014222;28;20068;-80
2023/03/31 03:15:51;;;;;;;12.55;3.90;;;9.80;99.90;;;;;;5013972;28;20061;-83
2023/03/31 03:18:17;;;;;;;12.85;3.72;;;9.90;99.90;;;;;;5006728;28;20041;-83
2023/03/31 03:20:48;;;;;;;13.18;4.00;;;9.90;99.90;;;;;;4994480;28;20057;-84
2023/03/31 03:23:16;;;;;;;15.05;4.43;;;9.90;99.90;;;;;;4996657;28;20452;-83
2023/03/31 03:25:43;;;;;;;13.25;4.25;;;10.00;99.90;;;;;;5012581;28;20056;-84
2023/03/31 03:28:09;;;;;;;12.85;4.05;;;10.00;99.90;;;;;;5014564;28;20125;-84
2023/03/31 03:30:35;;;;;;;11.18;4.20;;;10.00;99.90;;;;;;5003963;28;20092;-85
2023/03/31 03:33:02;;;;;;;16.90;3.97;;;10.00;99.90;;;;;;5012069;28;20537;-84
2023/03/31 03:35:28;;;;;;;14.23;4.10;;;10.00;99.90;;;;;;4996777;28;20050;-84
2023/03/31 03:37:54;;;;;;;13.50;4.38;;;10.00;99.90;;;;;;4994262;28;20046;-85
2023/03/31 03:40:19;;;;;;;12.20;4.05;;;10.00;99.90;;;;;;5013699;28;20058;-84
2023/03/31 03:42:45;;;;;;;12.38;4.38;;;10.10;99.90;;;;;;4996414;28;20448;-83
2023/03/31 03:45:11;;;;;;;10.82;3.97;;;10.10;99.90;;;;;;5013099;28;20076;-84
2023/03/31 03:47:37;;;;;;;12.55;4.45;;;10.20;99.90;;;;;;5014002;28;20476;-84
2023/03/31 03:50:09;;;;;;;15.38;4.50;;;10.20;99.90;;;;;;4998549;28;20114;-83
2023/03/31 03:52:35;;;;;;;15.07;4.60;;;10.10;99.90;;;;;;4967043;28;20046;-84
2023/03/31 03:55:00;;;;;;;11.93;4.65;;;10.20;99.90;;;;;;4998623;28;20061;-85
2023/03/31 03:57:27;;;;;;;11.70;4.20;;;10.20;99.90;;;;;;4996982;28;20057;-84
2023/03/31 03:59:53;;;;;;;14.30;4.30;;;10.10;99.90;;;;;;4999414;28;20045;-82
2023/03/31 04:02:19;;;;;;;10.82;4.55;;;10.00;99.90;;;;;;4963670;28;20129;-83
2023/03/31 04:04:48;;;;;;;13.55;4.60;;;10.20;99.90;;;;;;4989576;28;20126;-81
2023/03/31 04:07:18;;;;;;;10.60;4.45;;;10.10;99.90;;;;;;4995276;28;20056;-80
2023/03/31 04:09:46;;;;;;;12.00;4.80;;;10.10;99.90;;;;;;4961302;28;20049;-79
2023/03/31 04:12:12;;;;;;;13.55;4.43;;;10.10;99.90;;;;;;4960682;28;20050;-79
2023/03/31 04:14:37;;;;;;;14.00;4.90;;;10.00;99.90;;;;;;5003105;28;20137;-80
2023/03/31 04:17:03;;;;;;;11.82;4.03;;;10.00;99.90;;;;;;4982919;28;20045;-79
2023/03/31 04:19:29;;;;;;;11.23;4.80;;;10.00;99.90;;;;;;5000098;28;20046;-78
2023/03/31 04:22:01;;;;;;;12.13;5.00;;;10.00;99.90;;;;;;4982843;28;20085;-81
2023/03/31 04:24:31;;;;;;;15.40;5.70;;;9.90;99.90;;;;;;4971129;28;20048;-78
2023/03/31 04:26:59;;;;;;;10.63;4.60;;;9.90;99.90;;;;;;5000087;28;20456;-77
2023/03/31 04:29:25;;;;;;;15.35;4.93;;;9.90;99.90;;;;;;5017222;28;20125;-78
2023/03/31 04:31:57;;;;;;;17.00;4.95;;;9.90;99.90;;;;;;5015383;28;20124;-79
2023/03/31 04:34:25;;;;;;;14.63;4.93;;;9.70;99.90;;;;;;4999598;28;20077;-78
2023/03/31 04:36:54;;;;;;;13.02;5.10;;;9.80;99.90;;;;;;5014387;28;20063;-79
2023/03/31 04:39:25;;;;;;;10.68;4.57;;;9.80;99.90;;;;;;5000445;28;20057;-79
2023/03/31 04:41:52;;;;;;;13.57;5.28;;;9.80;99.90;;;;;;4998726;28;20083;-79
2023/03/31 04:44:18;;;;;;;12.27;4.78;;;9.70;99.90;;;;;;5030862;28;20508;-79
2023/03/31 04:46:44;;;;;;;12.23;5.05;;;9.70;99.90;;;;;;4998416;28;20046;-79
2023/03/31 04:49:09;;;;;;;11.35;4.82;;;9.70;99.90;;;;;;5014232;28;20521;-80
2023/03/31 04:51:35;;;;;;;15.32;6.25;;;9.70;99.90;;;;;;4983647;28;20072;-79
2023/03/31 04:54:01;;;;;;;13.68;5.78;;;9.70;99.90;;;;;;4997936;28;20050;-80
2023/03/31 04:56:28;;;;;;;15.18;5.47;;;9.80;99.90;;;;;;4962795;28;20046;-79
2023/03/31 04:58:54;;;;;;;16.63;5.93;;;9.80;99.90;;;;;;4978710;28;20040;-79
2023/03/31 05:01:19;;;;;;;13.13;4.82;;;9.80;99.90;;;;;;4982315;28;20121;-78
2023/03/31 05:03:46;;;;;;;14.90;5.18;;;9.80;99.90;;;;;;5013154;28;20045;-77
2023/03/31 05:06:14;;;;;;;15.70;5.60;;;9.90;99.90;;;;;;5014290;28;20112;-79
2023/03/31 05:08:40;;;;;;;16.85;6.03;;;9.90;99.90;;;;;;4997025;28;20725;-79
2023/03/31 05:11:06;;;;;;;12.65;5.22;;;9.90;99.90;;;;;;5014603;28;20504;-79
2023/03/31 05:13:32;;;;;;;11.77;5.22;;;9.90;99.90;;;;;;5014049;28;20089;-79
2023/03/31 05:15:58;;;;;;;13.45;5.50;;;10.00;99.90;;;;;;5008267;28;20470;-80
2023/03/31 05:18:23;;;;;;;14.57;5.47;;;10.00;99.90;;;;;;5007295;28;20048;-80
2023/03/31 05:20:49;;;;;;;14.18;5.53;;;10.00;99.90;;;;;;5014096;28;20076;-82
2023/03/31 05:23:15;;;;;;;14.07;5.32;;;10.00;99.90;;;;;;5013193;28;20163;-83
2023/03/31 05:25:41;;;;;;;12.32;4.72;;;10.00;99.90;;;;;;4981976;28;20128;-81
2023/03/31 05:28:08;;;;;;;13.90;5.38;;;10.00;99.90;;;;;;4993650;28;20049;-81
2023/03/31 05:30:34;;;;;;;12.45;4.93;;;10.00;99.90;;;;;;4992891;28;20061;-81
2023/03/31 05:33:00;;;;;;;13.85;5.10;;;10.00;99.90;;;;;;5013842;28;20061;-81
2023/03/31 05:35:26;;;;;;;12.73;5.05;;;10.00;99.90;;;;;;5014061;28;20128;-81
2023/03/31 05:37:52;;;;;;;13.63;4.90;;;10.10;99.90;;;;;;4993228;28;20054;-82
2023/03/31 05:40:18;;;;;;;11.90;4.80;;;10.10;99.90;;;;;;5004740;28;20501;-82
2023/03/31 05:42:44;;;;;;;13.88;5.40;;;10.10;99.90;;;;;;4997238;28;20077;-82
2023/03/31 05:45:11;;;;;;;14.70;5.18;;;10.10;99.90;;;;;;4997322;28;20081;-80
2023/03/31 05:47:37;;;;;;;14.75;4.95;;;10.10;99.90;;;;;;4994586;28;20046;-80
2023/03/31 05:50:06;;;;;;;11.90;5.25;;;10.10;99.90;;;;;;4996870;28;20058;-81
2023/03/31 05:52:32;;;;;;;16.58;5.68;;;10.10;99.90;;;;;;5006946;28;20124;-80
2023/03/31 05:54:58;;;;;;;12.90;5.13;;;10.10;99.90;;;;;;4995924;28;20045;-80
2023/03/31 05:57:24;;;;;;;13.48;5.30;;;10.10;99.90;;;;;;4993394;28;20042;-79
2023/03/31 05:59:50;;;;;;;12.80;5.80;;;10.10;99.90;;;;;;4994968;28;20053;-79
2023/03/31 06:02:16;;;;;;;12.95;5.80;;;10.10;99.90;;;;;;4996668;28;20045;-79
2023/03/31 06:04:42;;;;;;;14.70;6.30;;;10.10;99.90;;;;;;5013465;28;20120;-79
2023/03/31 06:07:09;;;;;;;14.27;5.80;;;10.20;99.90;;;;;;4996534;28;20124;-78
2023/03/31 06:09:35;;;;;;;13.82;5.88;;;10.20;99.90;;;;;;4993279;28;20058;-80
2023/03/31 06:12:00;;;;;;;12.95;5.75;;;10.20;99.90;;;;;;4996038;28;20052;-79
2023/03/31 06:14:27;;;;;;;14.75;5.82;;;10.20;99.90;;;;;;5013183;28;20050;-79
2023/03/31 06:16:53;;;;;;;14.73;5.68;;;10.30;99.90;;;;;;4995793;28;20065;-79
2023/03/31 06:19:19;;;;;;;11.73;5.80;;;10.30;99.90;;;;;;4965260;28;20054;-79
2023/03/31 06:21:44;;;;;;;12.57;5.38;;;10.20;99.90;;;;;;5012670;28;20136;-81
2023/03/31 06:24:10;;;;;;;12.82;5.50;;;10.20;99.90;;;;;;5010961;28;20069;-81
2023/03/31 06:26:36;;;;;;;12.63;5.20;;;10.20;99.90;;;;;;5006948;28;20078;-81
2023/03/31 06:29:02;;;;;;;13.70;5.82;;;10.20;99.90;;;;;;4993122;28;20045;-80
2023/03/31 06:31:28;;;;;;;11.77;5.53;;;10.20;99.90;;;;;;5012460;28;20502;-81
2023/03/31 06:33:54;;;;;;;13.57;5.40;;;10.20;99.90;;;;;;4993325;28;20054;-80
2023/03/31 06:36:21;;;;;;;13.43;4.55;;;10.20;99.90;;;;;;4998668;28;20049;-79
2023/03/31 06:38:48;;;;;;;13.70;5.47;;;10.20;99.90;;;;;;4995179;28;20054;-79
2023/03/31 06:41:15;;;;;;;13.15;4.78;;;10.20;99.90;;;;;;4996353;28;20429;-79
2023/03/31 06:43:41;;;;;;;11.90;5.25;;;10.20;99.90;;;;;;5012594;28;20058;-78
2023/03/31 06:46:08;;;;;;;11.13;4.57;;;10.20;99.90;;;;;;5010413;28;20041;-79
2023/03/31 06:48:34;;;;;;;14.13;4.90;;;10.30;99.90;;;;;;5013262;28;20068;-77
2023/03/31 06:51:02;;;;;;;11.77;4.25;;;10.30;99.90;;;;;;5012385;28;20129;-77
2023/03/31 06:53:28;;;;;;;9.20;4.22;;;10.30;99.90;;;;;;4994912;28;20050;-77
2023/03/31 06:55:55;;;;;;;12.70;4.60;;;10.30;99.90;;;;;;4993466;28;20050;-77
2023/03/31 06:58:21;;;;;;;12.25;4.57;;;11.00;99.90;;;;;;4995469;28;20374;-78
2023/03/31 07:00:47;;;;;;;12.85;4.13;;;10.20;99.90;;;;;;5012355;28;20054;-78
2023/03/31 07:03:15;;;;;;;10.77;4.28;;;10.30;99.90;;;;;;5013365;28;20176;-79
2023/03/31 07:05:41;;;;;;;10.77;4.10;;;10.20;99.90;;;;;;4980881;28;20050;-79
2023/03/31 07:08:07;;;;;;;10.57;3.67;;;10.30;99.90;;;;;;4995500;28;20049;-78
2023/03/31 07:10:32;;;;;;;11.52;4.53;;;10.30;99.90;;;;;;5012402;28;20056;-79
2023/03/31 07:12:58;;;;;;;10.15;4.28;;;10.30;99.90;;;;;;4992584;28;20054;-79
2023/03/31 07:15:27;;;;;;;11.80;5.18;;;10.30;99.90;;;;;;5008209;28;20378;-80
2023/03/31 07:18:00;;;;;;;10.15;4.47;;;10.30;99.90;;;;;;4995641;28;20050;-80
2023/03/31 07:20:27;;;;;;;9.57;4.70;;;10.30;99.90;;;;;;5012635;28;20409;-80
2023/03/31 07:22:53;;;;;;;12.23;5.07;;;10.30;99.90;;;;;;4995373;28;20038;-81
2023/03/31 07:25:19;;;;;;;12.93;5.28;;;10.30;99.90;;;;;;5012629;28;20390;-80
2023/03/31 07:27:45;;;;;;;10.00;4.45;;;10.30;99.90;;;;;;4996116;28;20050;-79
2023/03/31 07:30:17;;;;;;;14.30;5.57;;;10.30;99.90;;;;;;4979504;28;20054;-80
2023/03/31 07:32:46;;;;;;;;;;;10.40;99.90;;;;;;5012261;28;20112;-81
2023/03/31 07:35:12;;;;;;;14.52;5.50;;;10.30;99.90;;;;;;5013508;28;19976;-80
2023/03/31 07:37:40;;;;;;;13.63;5.38;;;10.40;99.90;;;;;;5011484;28;20073;-82
2023/03/31 07:40:07;;;;;;;13.68;5.63;;;10.40;99.90;;;;;;5011723;28;20084;-81
2023/03/31 07:42:33;;;;;;;12.82;6.10;;;10.50;99.90;;;;;;5012981;28;20050;-82
2023/03/31 07:44:59;;;;;;;11.02;5.43;;;10.50;99.90;;;;;;5001121;28;20134;-81
2023/03/31 07:47:26;;;;;;;13.80;5.90;;;10.50;99.90;;;;;;5005758;28;20128;-81
2023/03/31 07:49:52;;;;;;;12.43;5.35;;;10.60;99.90;;;;;;5002638;28;20672;-81
2023/03/31 07:52:18;;;;;;;13.65;6.25;;;10.60;99.90;;;;;;5015975;28;20133;-81
2023/03/31 07:54:47;;;;;;;13.18;5.32;;;10.60;99.90;;;;;;5007843;28;20044;-81
2023/03/31 07:57:15;;;;;;;13.50;5.60;;;10.70;99.90;;;;;;5007793;28;20053;-80
2023/03/31 07:59:41;;;;;;;12.98;5.70;;;10.70;99.90;;;;;;5010874;28;20068;-81
2023/03/31 08:02:10;;;;;;;14.95;5.63;;;10.70;99.90;;;;;;5012049;28;20379;-82
2023/03/31 08:04:35;;;;;;;10.93;5.10;;;10.80;99.90;;;;;;4989564;28;20520;-82
2023/03/31 08:07:04;;;;;;;11.82;5.13;;;10.80;99.90;;;;;;5006168;28;20061;-80
2023/03/31 08:09:29;;;;;;;11.35;4.88;;;10.90;99.90;;;;;;4994158;28;20049;-79
2023/03/31 08:11:55;;;;;;;14.00;4.70;;;11.00;99.90;;;;;;5010402;28;20562;-79
2023/03/31 08:14:21;;;;;;;12.82;5.40;;;11.00;99.90;;;;;;4976524;28;20049;-79
2023/03/31 08:16:52;;;;;;;12.32;4.63;;;11.00;99.90;;;;;;5006139;28;20052;-80
2023/03/31 08:19:18;;;;;;;12.05;4.95;;;11.00;99.90;;;;;;4994884;28;20053;-80
2023/03/31 08:21:43;;;;;;;12.75;4.75;;;11.10;99.90;;;;;;5011682;28;20136;-82
2023/03/31 08:24:09;;;;;;;12.73;4.70;;;11.10;99.90;;;;;;4994595;28;20100;-79
2023/03/31 08:26:35;;;;;;;12.93;4.43;;;11.10;99.90;;;;;;4975578;28;20054;-79
2023/03/31 08:29:02;;;;;;;12.38;4.35;;;11.10;99.90;;;;;;4985245;28;20054;-81
2023/03/31 08:31:29;;;;;;;11.55;4.88;;;11.10;99.90;;;;;;5004829;28;20092;-81
2023/03/31 08:33:56;;;;;;;11.75;4.30;;;11.00;99.90;;;;;;4992062;28;20676;-81
2023/03/31 08:36:22;;;;;;;10.40;4.15;;;11.00;99.90;;;;;;4989753;28;20482;-81
2023/03/31 08:38:48;;;;;;;10.07;4.45;;;11.10;99.90;;;;;;5009024;28;20046;-82
2023/03/31 08:41:55;;;;;;;12.18;4.78;;;11.10;99.90;;;;;;4993566;28;20096;-80
2023/03/31 08:49:27;;;;;;;10.38;4.20;;;11.10;99.90;;;;;;5014737;22;20050;-77
2023/03/31 08:52:03;;;;;;;11.80;4.30;;;11.00;99.90;;;;;;4989530;28;21091;-80
2023/03/31 08:54:39;;;;;;;11.38;4.72;;;11.00;99.90;;;;;;4998870;28;20050;-80
2023/03/31 08:57:25;;;;;;;9.63;3.83;;;11.00;99.90;;;;;;5025629;28;20045;-79
2023/03/31 08:59:51;;;;;;;12.93;4.80;;;11.00;99.90;;;;;;4987308;28;20160;-82
2023/03/31 09:02:51;;;;;;;11.18;3.67;;;11.10;99.90;;;;;;5021888;28;20125;-81
2023/03/31 09:05:22;;;;;;;10.88;3.90;;;11.00;99.90;;;;;;4990299;28;20045;-82
2023/03/31 09:08:06;;;;;;;13.27;4.30;;;11.00;99.90;;;;;;5008621;28;20038;-82
2023/03/31 09:10:37;;;;;;;11.93;4.15;;;11.00;99.90;;;;;;4999250;28;20456;-81
2023/03/31 09:13:40;;;;;;;14.05;4.57;;;11.00;99.90;;;;;;5004067;28;20709;-82
2023/03/31 09:16:51;;;;;;;9.80;3.72;;;11.00;99.90;;;;;;5001924;28;20042;-81
2023/03/31 09:19:40;;;;;;;12.38;3.60;;;11.10;99.90;;;;;;4980680;28;20136;-81
2023/03/31 09:22:25;;;;;;;11.00;3.60;;;11.10;99.90;;;;;;4988511;28;20071;-81
2023/03/31 09:25:16;;;;;;;9.93;3.50;;;11.20;99.90;;;;;;5005900;28;20049;-81
2023/03/31 09:27:43;;;;;;;12.32;3.70;;;11.20;99.90;;;;;;5020849;28;20140;-82
2023/03/31 09:30:20;;;;;;;10.02;3.15;;;10.90;99.90;;;;;;4988594;28;20037;-82
2023/03/31 09:32:51;;;;;;;11.02;4.25;;;11.20;99.90;;;;;;4998061;28;20096;-80
2023/03/31 09:35:24;;;;;;;10.00;3.30;;;11.20;99.90;;;;;;4997714;28;20041;-82
2023/03/31 09:37:50;;;;;;;11.00;3.17;;;11.30;99.90;;;;;;5001510;28;20034;-79
2023/03/31 09:40:23;;;;;;;9.05;3.42;;;11.40;99.90;;;;;;5006267;28;20061;-79
2023/03/31 09:42:58;;;;;;;9.43;3.08;;;11.40;99.90;;;;;;5003716;28;20496;-80
2023/03/31 09:45:24;;;;;;;9.38;2.95;;;11.50;99.90;;;;;;4999311;28;20465;-79
2023/03/31 09:47:54;;;;;;;10.48;3.17;;;11.60;99.90;;;;;;5002652;28;20416;-78
2023/03/31 09:50:22;;;;;;;9.98;3.40;;;11.50;99.90;;;;;;4983890;28;20041;-77
2023/03/31 09:52:50;;;;;;;8.73;2.97;;;11.60;99.90;;;;;;4988357;28;20095;-78
2023/03/31 09:55:45;;;;;;;7.90;2.72;;;11.60;99.90;;;;;;4981734;28;20053;-77
2023/03/31 09:58:17;;;;;;;8.32;2.90;;;11.60;99.90;;;;;;5006434;28;20046;-77
2023/03/31 10:00:55;;;;;;;;;;;11.60;99.90;;;;;;4996287;28;20046;-77
2023/03/31 10:03:22;;;;;;;8.38;2.92;;;11.60;99.90;;;;;;5005792;28;19932;-78
2023/03/31 10:05:53;;;;;;;8.95;3.05;;;11.70;99.90;;;;;;4983261;28;20045;-77
2023/03/31 10:08:21;;;;;;;8.13;3.20;;;11.70;99.90;;;;;;5008736;28;20048;-78
2023/03/31 10:11:00;;;;;;;9.70;3.83;;;11.70;99.90;;;;;;4983869;28;20192;-78
2023/03/31 10:13:34;;;;;;;9.05;3.13;;;11.80;99.90;;;;;;4989634;28;20046;-78
2023/03/31 10:16:07;;;;;;;9.20;3.13;;;11.90;99.90;;;;;;4996447;28;20050;-77
2023/03/31 10:18:39;;;;;;;8.98;3.35;;;11.90;99.90;;;;;;4988331;28;20045;-78
2023/03/31 10:21:17;;;;;;;8.88;3.40;;;11.90;99.90;;;;;;4979167;28;20061;-78
2023/03/31 10:23:46;;;;;;;8.38;3.00;;;11.90;99.90;;;;;;4998739;28;20613;-81
2023/03/31 10:26:20;;;;;;;6.07;2.10;;;12.00;99.90;;;;;;5005010;28;20091;-77
2023/03/31 10:28:51;;;;;;;6.93;2.17;;;12.00;99.90;;;;;;5008431;28;20374;-78
2023/03/31 10:31:18;;;;;;;8.82;2.60;;;12.00;99.90;;;;;;5006916;28;20180;-79
2023/03/31 10:33:48;;;;;;;8.15;2.17;;;12.10;99.90;;;;;;4992579;28;20045;-79
2023/03/31 10:36:27;;;;;;;7.13;2.30;;;12.10;99.90;;;;;;4991097;28;20061;-78
2023/03/31 10:38:54;;;;;;;6.78;2.08;;;12.30;99.90;;;;;;5009500;28;20045;-78
2023/03/31 10:41:28;;;;;;;6.10;1.95;;;12.40;99.90;;;;;;5010265;28;20053;-79
2023/03/31 10:43:56;;;;;;;6.90;2.28;;;12.50;99.90;;;;;;5005895;28;20104;-80
2023/03/31 10:46:48;;;;;;;8.63;2.17;;;12.80;99.90;;;;;;5023961;28;20554;-80
2023/03/31 10:49:24;;;;;;;7.55;2.10;;;12.90;99.90;;;;;;4990015;28;20061;-79
2023/03/31 10:51:56;;;;;;;7.72;2.20;;;13.00;99.90;;;;;;5006780;28;20053;-80
2023/03/31 10:54:23;;;;;;;7.72;2.20;;;12.90;99.90;;;;;;5020287;28;20053;-81
2023/03/31 10:56:53;;;;;;;7.22;2.30;;;12.90;99.90;;;;;;4992219;28;20037;-80
2023/03/31 10:59:41;;;;;;;7.78;2.42;;;12.90;99.90;;;;;;4998693;28;20053;-80
2023/03/31 11:02:40;;;;;;;8.75;2.20;;;12.90;99.90;;;;;;4986135;28;20138;-80
2023/03/31 11:05:27;;;;;;;7.20;1.90;;;12.80;99.90;;;;;;4994029;28;20469;-81
2023/03/31 11:08:18;;;;;;;5.82;2.03;;;12.90;99.90;;;;;;5005567;28;20045;-79
2023/03/31 11:11:01;;;;;;;5.78;1.88;;;13.00;99.90;;;;;;5000529;28;20481;-79
2023/03/31 11:13:39;;;;;;;5.32;1.70;;;12.90;99.90;;;;;;4985580;28;20037;-81
2023/03/31 11:16:29;;;;;;;6.70;1.75;;;12.90;99.90;;;;;;4991523;28;20081;-79
2023/03/31 11:19:02;;;;;;;6.70;1.83;;;12.90;99.90;;;;;;4950931;28;20068;-79
2023/03/31 11:21:50;;;;;;;5.93;1.73;;;12.90;99.90;;;;;;5003725;28;20144;-78
2023/03/31 11:24:18;;;;;;;5.85;1.77;;;12.90;99.90;;;;;;4990883;28;20077;-80
2023/03/31 11:27:21;;;;;;;6.13;2.25;;;12.90;99.90;;;;;;5013654;28;20067;-78
2023/03/31 11:30:06;;;;;;;;;;;13.00;99.90;;;;;;5028822;28;20053;-79
2023/03/31 11:32:59;;;;;;;5.78;2.05;;;13.00;99.90;;;;;;4994054;28;19929;-79
2023/03/31 11:35:44;;;;;;;5.22;1.70;;;13.00;99.90;;;;;;5007258;28;20387;-78
2023/03/31 11:38:35;;;;;;;5.85;1.70;;;13.00;99.90;;;;;;5001927;28;20497;-78
2023/03/31 11:41:35;;;;;;;6.78;1.88;;;13.00;99.90;;;;;;5012860;28;20124;-78
2023/03/31 11:44:04;;;;;;;7.80;2.38;;;13.00;99.90;;;;;;5004772;28;20132;-78
2023/03/31 11:46:51;;;;;;;5.43;2.15;;;13.00;99.90;;;;;;4978270;28;134718;-79
2023/03/31 11:49:54;;;;;;;7.78;2.25;;;13.00;99.90;;;;;;5090767;27;20138;-77
2023/03/31 11:52:30;;;;;;;7.88;2.33;;;13.00;99.90;;;;;;5070671;28;20132;-77
2023/03/31 11:55:04;;;;;;;6.53;2.33;;;13.10;99.90;;;;;;5070409;28;20106;-79
2023/03/31 11:57:47;;;;;;;9.98;2.88;;;13.10;99.90;;;;;;5053829;28;20060;-78
2023/03/31 12:00:40;;;;;;;7.95;2.45;;;13.10;99.90;;;;;;5070505;28;20063;-78
2023/03/31 12:03:30;;;;;;;9.52;2.85;;;13.20;99.90;;;;;;5070496;28;20044;-78
2023/03/31 12:06:18;;;;;;;9.82;2.80;;;13.30;99.90;;;;;;5053909;28;20103;-79
2023/03/31 12:09:10;;;;;;;10.60;2.65;;;13.40;99.90;;;;;;5070351;28;20446;-77
2023/03/31 12:11:39;;;;;;;;;;;13.30;99.90;;;;;;5066137;28;20052;-76
2023/03/31 12:14:26;;;;;;;9.10;2.90;;;13.20;99.90;;;;;;5104408;28;19924;-76
2023/03/31 12:17:01;;;;;;;9.68;2.88;;;13.10;99.90;;;;;;5070197;28;20503;-76
2023/03/31 12:19:45;;;;;;;10.00;3.10;;;13.00;99.90;;;;;;5068801;28;20057;-76
2023/03/31 12:22:45;;;;;;;10.05;3.13;;;13.00;99.90;;;;;;5062076;28;20085;-77
2023/03/31 12:25:21;;;;;;;11.00;3.30;;;13.00;99.90;;;;;;5021840;28;20553;-77
2023/03/31 12:27:49;;;;;;;10.98;2.90;;;13.00;99.90;;;;;;5052727;28;20076;-77
2023/03/31 12:30:33;;;;;;;7.53;2.63;;;13.00;99.90;;;;;;5052603;28;20044;-76
2023/03/31 12:33:02;;;;;;;9.45;2.90;;;12.90;99.90;;;;;;5070255;28;20144;-75
2023/03/31 12:35:41;;;;;;;11.77;3.00;;;12.90;99.90;;;;;;5069765;28;20579;-75
2023/03/31 12:38:45;;;;;;;10.45;3.20;;;12.90;99.90;;;;;;5067375;28;20048;-75
2023/03/31 12:41:43;;;;;;;10.23;2.90;;;12.90;99.90;;;;;;5053476;28;20048;-76
2023/03/31 12:44:40;;;;;;;7.53;2.67;;;13.00;99.90;;;;;;5015180;28;20103;-77
2023/03/31 12:47:24;;;;;;;10.13;3.65;;;13.30;99.90;;;;;;5069415;28;20051;-76
2023/03/31 12:50:07;;;;;;;9.77;3.08;;;13.60;99.90;;;;;;5069235;28;20059;-78
2023/03/31 12:53:01;;;;;;;10.10;2.88;;;13.70;99.90;;;;;;5058174;28;20051;-78
2023/03/31 12:55:40;;;;;;;8.85;3.00;;;13.70;99.90;;;;;;5049552;28;20496;-77
2023/03/31 12:58:28;;;;;;;9.98;3.13;;;13.60;99.90;;;;;;5049701;28;20042;-78
2023/03/31 13:01:06;;;;;;;11.70;3.20;;;13.70;99.90;;;;;;5037528;28;20515;-78
2023/03/31 13:03:40;;;;;;;9.93;3.13;;;13.70;99.90;;;;;;5036108;28;20124;-78
2023/03/31 13:06:10;;;;;;;10.50;2.90;;;13.60;99.90;;;;;;5036287;28;20084;-78
2023/03/31 13:08:57;;;;;;;10.23;3.20;;;13.60;99.90;;;;;;5035717;28;20056;-78
2023/03/31 13:11:37;;;;;;;10.93;3.65;;;13.50;99.90;;;;;;5002908;28;20045;-78
2023/03/31 13:14:16;;;;;;;10.48;3.58;;;13.40;99.90;;;;;;5035734;28;20559;-78
2023/03/31 13:16:41;;;;;;;14.18;4.25;;;13.30;99.90;;;;;;5036019;28;20049;-80